Time;durP1;ratioP1;P1;durP2;ratioP2;P2;SDS_P1;SDS_P2;PMS_P1;PMS_P2;Temp;Humidity;BMP_temperature;BMP_pressure;BME280_temperature;BME280_humidity;BME280_pressure;Samples;Min_cycle;Max_cycle;Signal;HPM_P1;HPM_P2
2021/07/14 00:00:54;;;;;;;37.40;33.67;;;22.10;95.30;;;;;;5075429;28;20934;-75
2021/07/14 00:03:22;;;;;;;37.83;34.33;;;22.10;95.30;;;;;;5075740;28;20848;-75
2021/07/14 00:05:49;;;;;;;36.97;33.57;;;22.10;95.40;;;;;;5075539;28;20483;-74
2021/07/14 00:08:16;;;;;;;39.60;35.70;;;22.10;95.40;;;;;;5075281;28;20949;-74
2021/07/14 00:10:42;;;;;;;36.23;32.83;;;22.10;95.40;;;;;;5075482;28;20456;-74
2021/07/14 00:13:23;;;;;;;37.50;34.00;;;22.10;95.40;;;;;;5075583;28;20448;-74
2021/07/14 00:24:20;;;;;;;34.80;31.50;;;22.10;95.40;;;;;;4994059;28;20471;-75
2021/07/14 00:26:47;;;;;;;34.37;31.27;;;22.10;95.40;;;;;;5039285;28;20488;-75
2021/07/14 00:29:15;;;;;;;33.77;30.47;;;22.10;95.40;;;;;;5074164;28;20452;-75
2021/07/14 00:31:42;;;;;;;34.87;31.40;;;22.10;95.40;;;;;;5075601;28;20464;-75
2021/07/14 00:34:10;;;;;;;34.97;31.67;;;22.10;95.40;;;;;;5075215;28;20507;-75
2021/07/14 00:36:36;;;;;;;38.20;34.30;;;22.10;95.40;;;;;;5075361;28;20440;-75
2021/07/14 00:39:04;;;;;;;39.23;35.23;;;22.10;95.30;;;;;;5074960;28;20437;-75
2021/07/14 00:41:31;;;;;;;34.73;31.40;;;22.00;95.30;;;;;;5075148;28;20445;-75
2021/07/14 00:43:57;;;;;;;35.67;32.20;;;22.00;95.40;;;;;;5075056;28;20468;-76
2021/07/14 00:46:26;;;;;;;34.57;31.27;;;22.00;95.50;;;;;;5075042;28;20485;-75
2021/07/14 00:48:56;;;;;;;40.87;36.57;;;22.00;95.60;;;;;;5074923;28;20444;-75
2021/07/14 00:51:24;;;;;;;35.43;31.83;;;22.00;95.50;;;;;;5074860;28;20463;-75
2021/07/14 00:53:51;;;;;;;37.27;33.67;;;21.90;95.50;;;;;;5074606;28;20518;-74
2021/07/14 00:56:19;;;;;;;42.20;35.20;;;21.90;95.70;;;;;;5074706;28;20447;-75
2021/07/14 00:58:46;;;;;;;37.07;33.27;;;21.80;95.70;;;;;;5074702;28;20441;-75
2021/07/14 01:01:13;;;;;;;34.50;31.03;;;21.80;95.90;;;;;;5074503;28;20942;-75
2021/07/14 01:03:46;;;;;;;36.53;32.70;;;21.70;95.90;;;;;;5074204;28;21005;-74
2021/07/14 01:06:21;;;;;;;37.70;33.93;;;21.60;95.90;;;;;;5074800;28;20559;-75
2021/07/14 01:08:55;;;;;;;39.47;35.30;;;21.60;96.10;;;;;;5074277;28;20436;-75
2021/07/14 01:11:25;;;;;;;34.77;31.23;;;21.60;96.30;;;;;;5074577;28;20429;-75
2021/07/14 01:14:00;;;;;;;35.83;32.17;;;21.60;96.40;;;;;;5074185;28;20823;-75
2021/07/14 01:16:32;;;;;;;36.87;33.07;;;21.60;96.50;;;;;;5074030;28;20421;-74
2021/07/14 01:19:11;;;;;;;38.83;34.80;;;21.60;96.50;;;;;;5074421;28;20436;-74
2021/07/14 01:21:41;;;;;;;37.00;33.20;;;21.60;96.50;;;;;;5073843;28;20439;-75
2021/07/14 01:24:21;;;;;;;39.60;35.67;;;21.50;96.40;;;;;;5074004;28;20460;-74
2021/07/14 01:27:10;;;;;;;37.23;33.37;;;21.50;96.50;;;;;;5074249;28;20469;-75
2021/07/14 01:29:45;;;;;;;39.63;33.97;;;21.50;96.70;;;;;;5074011;28;20895;-75
2021/07/14 01:32:13;;;;;;;37.50;33.73;;;21.40;96.70;;;;;;5073982;28;20768;-75
2021/07/14 01:34:44;;;;;;;34.20;30.70;;;21.50;96.90;;;;;;5073778;28;20472;-75
2021/07/14 01:37:13;;;;;;;33.27;29.90;;;21.40;96.90;;;;;;5073881;28;20425;-75
2021/07/14 01:39:44;;;;;;;34.73;31.43;;;21.50;97.00;;;;;;5073416;28;20474;-75
2021/07/14 01:42:14;;;;;;;29.60;26.60;;;21.50;97.00;;;;;;5073807;28;20421;-75
2021/07/14 01:44:42;;;;;;;29.77;26.90;;;21.50;96.80;;;;;;5073664;28;20460;-75
2021/07/14 01:47:09;;;;;;;34.70;31.20;;;21.50;96.70;;;;;;5073639;28;20549;-75
2021/07/14 01:49:37;;;;;;;33.40;30.07;;;21.60;96.80;;;;;;5073637;28;20464;-75
2021/07/14 01:52:08;;;;;;;33.47;30.17;;;21.60;96.80;;;;;;5073407;28;20777;-75
2021/07/14 01:54:36;;;;;;;32.50;29.27;;;21.50;96.80;;;;;;5073620;28;20483;-75
2021/07/14 01:57:04;;;;;;;36.77;32.97;;;21.50;96.90;;;;;;5073279;28;20950;-76
2021/07/14 01:59:34;;;;;;;34.73;30.63;;;21.40;97.00;;;;;;5073667;28;20447;-76
2021/07/14 02:02:03;;;;;;;33.40;30.00;;;21.40;97.10;;;;;;5073605;28;20424;-76
2021/07/14 02:04:33;;;;;;;36.33;32.60;;;21.50;97.20;;;;;;5073493;28;20469;-75
2021/07/14 02:07:03;;;;;;;30.70;27.40;;;21.50;97.20;;;;;;5073494;28;20512;-76
2021/07/14 02:09:32;;;;;;;36.47;32.90;;;21.50;97.10;;;;;;5073587;28;20432;-76
2021/07/14 02:12:01;;;;;;;35.80;32.30;;;21.60;97.00;;;;;;5073475;28;20445;-76
2021/07/14 02:14:32;;;;;;;30.63;27.73;;;21.60;97.00;;;;;;5073434;28;20464;-76
2021/07/14 02:17:03;;;;;;;30.50;27.50;;;21.60;96.80;;;;;;5073170;28;20433;-76
2021/07/14 02:19:33;;;;;;;24.63;22.10;;;21.60;96.70;;;;;;5073491;28;20436;-75
2021/07/14 02:22:00;;;;;;;25.53;22.93;;;21.70;96.60;;;;;;5073363;28;20444;-76
2021/07/14 02:24:27;;;;;;;24.17;21.83;;;21.70;96.40;;;;;;5072944;28;20533;-75
2021/07/14 02:26:54;;;;;;;20.50;18.40;;;21.70;96.60;;;;;;5072932;28;20476;-75
2021/07/14 02:29:21;;;;;;;18.63;16.73;;;21.80;96.10;;;;;;5073273;28;20445;-75
2021/07/14 02:31:48;;;;;;;19.13;17.10;;;21.80;95.90;;;;;;5072941;28;20445;-75
2021/07/14 02:34:16;;;;;;;15.83;14.50;;;21.80;95.80;;;;;;5073161;28;20837;-75
2021/07/14 02:36:46;;;;;;;15.37;13.97;;;21.80;95.70;;;;;;5073204;28;20448;-75
2021/07/14 02:39:14;;;;;;;14.40;13.00;;;21.80;95.60;;;;;;5073205;28;20447;-75
2021/07/14 02:41:47;;;;;;;14.80;13.40;;;21.80;95.50;;;;;;5073173;28;20864;-74
2021/07/14 02:44:15;;;;;;;18.10;12.40;;;21.80;95.40;;;;;;5073153;28;20472;-75
2021/07/14 02:46:45;;;;;;;13.20;11.33;;;21.80;95.30;;;;;;5073058;28;20479;-75
2021/07/14 02:49:14;;;;;;;15.13;13.80;;;21.80;95.20;;;;;;5072922;28;20459;-75
2021/07/14 02:51:46;;;;;;;16.83;15.23;;;21.80;95.00;;;;;;5073905;28;20512;-74
2021/07/14 02:54:20;;;;;;;16.80;15.20;;;21.80;95.00;;;;;;5076897;28;20471;-74
2021/07/14 02:56:48;;;;;;;17.67;16.17;;;21.80;95.10;;;;;;5076636;28;20909;-75
2021/07/14 02:59:19;;;;;;;19.80;17.90;;;21.80;95.20;;;;;;5076834;28;20449;-75
2021/07/14 03:01:46;;;;;;;21.00;18.77;;;21.80;95.20;;;;;;5076507;28;20907;-75
2021/07/14 03:04:14;;;;;;;15.33;13.90;;;21.80;95.30;;;;;;5076947;28;20464;-74
2021/07/14 03:06:41;;;;;;;14.53;13.23;;;21.80;95.40;;;;;;5076890;28;20476;-75
2021/07/14 03:09:11;;;;;;;21.03;12.93;;;21.80;95.30;;;;;;5076700;28;20859;-75
2021/07/14 03:11:40;;;;;;;13.60;12.20;;;21.80;95.10;;;;;;5076673;28;20433;-74
2021/07/14 03:14:11;;;;;;;12.60;11.30;;;21.80;95.10;;;;;;5076463;28;20462;-75
2021/07/14 03:16:38;;;;;;;12.93;11.80;;;21.80;95.00;;;;;;5076528;28;20424;-75
2021/07/14 03:19:05;;;;;;;11.70;10.60;;;21.80;94.90;;;;;;5076423;28;20459;-75
2021/07/14 03:21:34;;;;;;;11.57;10.57;;;21.80;94.90;;;;;;5076147;28;20452;-75
2021/07/14 03:24:03;;;;;;;12.83;10.50;;;21.80;95.20;;;;;;5076322;28;20460;-74
2021/07/14 03:26:32;;;;;;;9.73;9.03;;;21.80;94.80;;;;;;5076251;28;20449;-75
2021/07/14 03:28:59;;;;;;;12.07;10.93;;;21.80;94.90;;;;;;5075965;28;20494;-75
2021/07/14 03:31:26;;;;;;;10.30;9.30;;;21.80;94.90;;;;;;5076259;28;20444;-75
2021/07/14 03:33:52;;;;;;;11.53;10.00;;;21.80;94.90;;;;;;5076163;28;20487;-75
2021/07/14 03:36:21;;;;;;;12.30;11.10;;;21.80;94.90;;;;;;5076155;28;20455;-75
2021/07/14 03:38:48;;;;;;;14.20;12.70;;;21.80;94.90;;;;;;5076105;28;20444;-75
2021/07/14 03:41:15;;;;;;;18.60;16.90;;;21.80;95.00;;;;;;5076052;28;20451;-75
2021/07/14 03:43:44;;;;;;;22.70;20.53;;;21.80;95.00;;;;;;5075977;28;20460;-75
2021/07/14 03:46:11;;;;;;;23.20;20.70;;;21.70;95.10;;;;;;5076007;28;20443;-75
2021/07/14 03:48:39;;;;;;;24.53;22.07;;;21.70;95.20;;;;;;5075864;28;20480;-75
2021/07/14 03:51:08;;;;;;;23.13;21.00;;;21.70;95.40;;;;;;5075534;28;20457;-74
2021/07/14 03:53:36;;;;;;;25.83;23.33;;;21.70;95.40;;;;;;5075478;28;20934;-74
2021/07/14 03:56:04;;;;;;;21.77;19.67;;;21.70;95.50;;;;;;5075488;28;20996;-75
2021/07/14 03:58:31;;;;;;;28.73;25.63;;;21.70;95.60;;;;;;5075741;28;20516;-75
2021/07/14 04:01:00;;;;;;;32.97;27.70;;;21.70;95.60;;;;;;5075772;28;20456;-75
2021/07/14 04:03:29;;;;;;;30.40;27.10;;;21.70;95.70;;;;;;5075549;28;20815;-75
2021/07/14 04:06:00;;;;;;;28.73;26.00;;;21.70;95.80;;;;;;5075684;28;20448;-75
2021/07/14 04:08:32;;;;;;;28.27;25.47;;;21.70;96.20;;;;;;5075438;28;20974;-75
2021/07/14 04:10:59;;;;;;;32.73;29.43;;;21.70;95.90;;;;;;5075669;28;20851;-75
2021/07/14 04:13:25;;;;;;;31.90;28.60;;;21.60;95.90;;;;;;5075475;28;20448;-75
2021/07/14 04:15:52;;;;;;;32.13;28.63;;;21.60;95.90;;;;;;5075461;28;20447;-75
2021/07/14 04:18:20;;;;;;;31.37;28.27;;;21.60;95.90;;;;;;5075102;28;20817;-75
2021/07/14 04:20:47;;;;;;;29.43;26.60;;;21.50;95.90;;;;;;5075349;28;20445;-75
2021/07/14 04:23:14;;;;;;;32.80;29.50;;;21.60;96.10;;;;;;5074984;28;20445;-75
2021/07/14 04:25:40;;;;;;;30.97;28.00;;;21.50;96.20;;;;;;5075293;28;20831;-75
2021/07/14 04:28:07;;;;;;;29.97;26.80;;;21.50;96.40;;;;;;5075316;28;20491;-75
2021/07/14 04:30:35;;;;;;;26.37;23.67;;;21.50;96.40;;;;;;5075123;28;20444;-75
2021/07/14 04:33:02;;;;;;;27.10;24.40;;;21.50;96.40;;;;;;5075039;28;20485;-75
2021/07/14 04:35:30;;;;;;;28.97;25.93;;;21.50;96.50;;;;;;5074950;28;20461;-74
2021/07/14 04:37:57;;;;;;;29.90;26.90;;;21.50;96.60;;;;;;5075246;28;20444;-74
2021/07/14 04:40:24;;;;;;;29.67;26.67;;;21.50;96.70;;;;;;5074990;28;20421;-74
2021/07/14 04:42:51;;;;;;;26.70;24.13;;;21.50;96.70;;;;;;5074866;28;20448;-75
2021/07/14 04:45:18;;;;;;;27.10;24.50;;;21.40;96.70;;;;;;5074770;28;20496;-75
2021/07/14 04:47:45;;;;;;;28.23;25.47;;;21.50;96.70;;;;;;5074757;28;20464;-75
2021/07/14 04:50:12;;;;;;;26.57;23.83;;;21.40;96.70;;;;;;5074404;28;20864;-75
2021/07/14 04:52:40;;;;;;;25.73;23.30;;;21.50;96.80;;;;;;5074673;28;20448;-75
2021/07/14 04:55:08;;;;;;;24.53;22.20;;;21.40;96.70;;;;;;5074321;28;20969;-75
2021/07/14 04:57:35;;;;;;;22.80;20.80;;;21.50;96.80;;;;;;5074592;28;20421;-75
2021/07/14 05:00:03;;;;;;;26.13;23.33;;;21.50;96.80;;;;;;5074516;28;20444;-75
2021/07/14 05:02:30;;;;;;;28.10;23.43;;;21.50;96.80;;;;;;5074844;28;20444;-75
2021/07/14 05:04:57;;;;;;;22.93;20.67;;;21.50;96.70;;;;;;5074381;28;20476;-74
2021/07/14 05:07:24;;;;;;;23.80;21.50;;;21.40;96.60;;;;;;5074104;28;20530;-75
2021/07/14 05:09:52;;;;;;;22.83;20.53;;;21.40;96.70;;;;;;5074431;28;20498;-75
2021/07/14 05:12:19;;;;;;;23.97;21.53;;;21.40;96.70;;;;;;5073978;28;20899;-75
2021/07/14 05:14:46;;;;;;;22.50;20.23;;;21.40;96.70;;;;;;5073444;28;20874;-75
2021/07/14 05:17:12;;;;;;;23.83;21.33;;;21.40;96.70;;;;;;5073874;28;20437;-75
2021/07/14 05:19:39;;;;;;;21.67;19.57;;;21.40;96.70;;;;;;5073808;28;20448;-75
2021/07/14 05:22:06;;;;;;;21.77;19.67;;;21.40;96.80;;;;;;5074217;28;20425;-75
2021/07/14 05:24:33;;;;;;;24.13;21.73;;;21.40;96.80;;;;;;5073685;28;21001;-75
2021/07/14 05:27:01;;;;;;;20.00;18.00;;;21.40;96.70;;;;;;5073940;28;20452;-75
2021/07/14 05:29:27;;;;;;;21.00;18.90;;;21.40;96.90;;;;;;5073891;28;20891;-75
2021/07/14 05:31:54;;;;;;;21.00;18.93;;;21.30;97.00;;;;;;5073637;28;20836;-75
2021/07/14 05:34:21;;;;;;;20.47;18.47;;;21.30;97.00;;;;;;5073874;28;20472;-75
2021/07/14 05:36:48;;;;;;;20.00;18.10;;;21.20;97.10;;;;;;5073825;28;20456;-75
2021/07/14 05:39:15;;;;;;;19.47;17.53;;;21.20;97.20;;;;;;5073838;28;20444;-75
2021/07/14 05:41:42;;;;;;;19.40;17.57;;;21.20;97.20;;;;;;5073831;28;20433;-75
2021/07/14 05:44:10;;;;;;;19.17;17.27;;;21.20;97.40;;;;;;5073685;28;20465;-75
2021/07/14 05:46:37;;;;;;;18.73;16.93;;;21.20;97.40;;;;;;5073671;28;20509;-75
2021/07/14 05:49:04;;;;;;;18.23;16.50;;;21.30;97.40;;;;;;5074077;28;20487;-75
2021/07/14 05:51:31;;;;;;;17.37;15.87;;;21.30;97.30;;;;;;5073763;28;20440;-75
2021/07/14 05:53:58;;;;;;;18.10;16.23;;;21.20;97.30;;;;;;5073593;28;20483;-75
2021/07/14 05:56:25;;;;;;;17.50;15.73;;;21.30;97.40;;;;;;5073563;28;20437;-75
2021/07/14 05:58:52;;;;;;;16.87;15.27;;;21.30;97.40;;;;;;5073374;28;20423;-75
2021/07/14 06:01:20;;;;;;;16.03;14.47;;;21.30;97.40;;;;;;5073538;28;20449;-75
2021/07/14 06:03:48;;;;;;;16.17;14.73;;;21.30;97.30;;;;;;5073523;28;20563;-74
2021/07/14 06:06:15;;;;;;;16.70;14.73;;;21.40;97.30;;;;;;5073556;28;20491;-75
2021/07/14 06:08:42;;;;;;;16.50;14.97;;;21.30;97.20;;;;;;5073119;28;20871;-75
2021/07/14 06:11:09;;;;;;;14.73;13.43;;;21.30;97.20;;;;;;5073479;28;20445;-74
2021/07/14 06:13:36;;;;;;;16.67;14.90;;;21.30;97.30;;;;;;5073365;28;20452;-75
2021/07/14 06:16:04;;;;;;;16.80;15.00;;;21.30;97.30;;;;;;5073104;28;20515;-75
2021/07/14 06:18:32;;;;;;;17.50;15.80;;;21.30;97.30;;;;;;5073728;28;20430;-75
2021/07/14 06:20:58;;;;;;;18.70;16.50;;;21.40;97.40;;;;;;5073400;28;20445;-75
2021/07/14 06:23:25;;;;;;;16.93;15.27;;;21.40;97.40;;;;;;5073238;28;20950;-75
2021/07/14 06:25:54;;;;;;;16.17;14.67;;;21.40;97.30;;;;;;5074783;28;20432;-74
2021/07/14 06:28:21;;;;;;;16.20;14.80;;;21.40;97.20;;;;;;5077113;28;20487;-74
2021/07/14 06:30:47;;;;;;;15.23;13.90;;;21.40;97.20;;;;;;5077194;28;20930;-75
2021/07/14 06:33:14;;;;;;;15.57;14.10;;;21.40;97.20;;;;;;5077394;28;20446;-75
2021/07/14 06:35:43;;;;;;;15.70;14.10;;;21.40;97.20;;;;;;5077254;28;20472;-75
2021/07/14 06:38:10;;;;;;;15.13;13.77;;;21.50;97.30;;;;;;5077346;28;20793;-75
2021/07/14 06:40:38;;;;;;;14.80;13.50;;;21.50;97.10;;;;;;5077220;28;20447;-75
2021/07/14 06:43:07;;;;;;;16.43;14.83;;;21.40;97.10;;;;;;5077274;28;20495;-75
2021/07/14 06:45:34;;;;;;;14.50;13.13;;;21.50;97.10;;;;;;5076854;28;20889;-75
2021/07/14 06:48:01;;;;;;;14.77;13.37;;;21.50;97.20;;;;;;5077105;28;20472;-75
2021/07/14 06:50:28;;;;;;;15.43;14.10;;;21.50;97.20;;;;;;5076753;28;20456;-75
2021/07/14 06:52:56;;;;;;;15.60;14.10;;;21.50;97.10;;;;;;5077018;28;20498;-75
2021/07/14 06:55:24;;;;;;;15.17;13.87;;;21.50;97.10;;;;;;5076885;28;20497;-75
2021/07/14 06:57:51;;;;;;;16.07;14.67;;;21.50;97.10;;;;;;5077197;28;20429;-75
2021/07/14 07:00:19;;;;;;;21.03;14.63;;;21.50;97.00;;;;;;5076849;28;20487;-75
2021/07/14 07:02:45;;;;;;;16.80;15.00;;;21.40;97.10;;;;;;5076817;28;20449;-75
2021/07/14 07:05:12;;;;;;;16.17;14.77;;;21.40;97.30;;;;;;5076719;28;20467;-75
2021/07/14 07:07:39;;;;;;;16.13;13.93;;;21.40;97.40;;;;;;5076621;28;20807;-75
2021/07/14 07:10:09;;;;;;;15.43;13.83;;;21.40;97.40;;;;;;5076357;28;20440;-75
2021/07/14 07:12:36;;;;;;;14.37;12.97;;;21.40;97.40;;;;;;5076592;28;20463;-75
2021/07/14 07:15:03;;;;;;;18.13;14.67;;;21.40;97.40;;;;;;5076090;28;20472;-75
2021/07/14 07:17:30;;;;;;;15.70;14.20;;;21.40;97.40;;;;;;5076461;28;20456;-75
2021/07/14 07:19:57;;;;;;;14.90;13.60;;;21.40;97.30;;;;;;5076470;28;20440;-75
2021/07/14 07:22:24;;;;;;;14.20;12.80;;;21.40;97.20;;;;;;5076124;28;20960;-75
2021/07/14 07:24:51;;;;;;;15.20;12.70;;;21.40;97.30;;;;;;5076453;28;20464;-74
2021/07/14 07:27:19;;;;;;;14.27;12.93;;;21.40;97.30;;;;;;5076341;28;20845;-75
2021/07/14 07:29:46;;;;;;;13.13;11.53;;;21.40;97.20;;;;;;5076205;28;20563;-75
2021/07/14 07:32:12;;;;;;;13.50;12.30;;;21.40;97.20;;;;;;5076246;28;20444;-75
2021/07/14 07:34:39;;;;;;;16.27;14.10;;;21.30;97.10;;;;;;5075779;28;21041;-75
2021/07/14 07:37:06;;;;;;;13.83;12.50;;;21.30;97.20;;;;;;5075613;28;20452;-75
2021/07/14 07:39:33;;;;;;;14.07;12.77;;;21.30;97.30;;;;;;5076016;28;20444;-75
2021/07/14 07:42:02;;;;;;;15.27;13.63;;;21.30;97.30;;;;;;5076204;28;20445;-76
2021/07/14 07:44:31;;;;;;;10.50;9.60;;;21.30;97.40;;;;;;5076239;28;20469;-75
2021/07/14 07:46:57;;;;;;;10.80;9.87;;;21.30;97.30;;;;;;5075710;28;20436;-75
2021/07/14 07:49:24;;;;;;;11.33;10.30;;;21.30;97.20;;;;;;5075910;28;20492;-75
2021/07/14 07:51:51;;;;;;;10.03;9.17;;;21.30;97.20;;;;;;5075887;28;20452;-76
2021/07/14 07:54:18;;;;;;;10.60;9.60;;;21.30;97.20;;;;;;5075760;28;20464;-76
2021/07/14 07:56:45;;;;;;;10.60;9.60;;;21.40;97.20;;;;;;5075909;28;20472;-76
2021/07/14 07:59:11;;;;;;;10.17;9.23;;;21.40;97.20;;;;;;5075760;28;20868;-76
2021/07/14 08:01:40;;;;;;;11.87;9.67;;;21.40;97.20;;;;;;5075750;28;20433;-75
2021/07/14 08:04:07;;;;;;;10.17;9.27;;;21.50;97.20;;;;;;5075594;28;20514;-76
2021/07/14 08:06:34;;;;;;;10.40;9.60;;;21.50;97.10;;;;;;5075398;28;20950;-76
2021/07/14 08:09:02;;;;;;;10.87;9.87;;;21.50;97.00;;;;;;5075560;28;20480;-76
2021/07/14 08:11:29;;;;;;;11.50;10.30;;;21.50;96.90;;;;;;5075419;28;20445;-76
2021/07/14 08:13:59;;;;;;;9.90;9.10;;;21.60;97.00;;;;;;5075709;28;20464;-76
2021/07/14 08:16:26;;;;;;;9.53;8.73;;;21.50;96.90;;;;;;5075165;28;20947;-76
2021/07/14 08:18:54;;;;;;;8.80;8.13;;;21.50;96.80;;;;;;5075472;28;20425;-75
2021/07/14 08:21:21;;;;;;;9.90;9.00;;;21.50;96.80;;;;;;5075442;28;20482;-76
2021/07/14 08:23:48;;;;;;;9.73;8.83;;;21.50;96.80;;;;;;5075252;28;20461;-76
2021/07/14 08:26:14;;;;;;;8.50;7.70;;;21.50;96.80;;;;;;5075278;28;20420;-75
2021/07/14 08:28:42;;;;;;;8.70;8.00;;;21.50;96.70;;;;;;5074902;28;20480;-75
2021/07/14 08:31:08;;;;;;;8.60;7.90;;;21.50;96.70;;;;;;5074856;28;20974;-75
2021/07/14 08:33:36;;;;;;;9.23;8.40;;;21.50;96.80;;;;;;5075101;28;20429;-75
2021/07/14 08:36:04;;;;;;;8.87;8.17;;;21.50;96.80;;;;;;5057067;28;20930;-75
2021/07/14 08:38:31;;;;;;;9.03;8.23;;;21.40;96.70;;;;;;5074676;28;20483;-75
2021/07/14 08:40:59;;;;;;;9.80;9.00;;;21.50;96.80;;;;;;5074936;28;20449;-75
2021/07/14 08:43:31;;;;;;;9.57;8.67;;;21.60;96.90;;;;;;5074889;28;20455;-75
2021/07/14 08:45:59;;;;;;;9.80;8.43;;;21.50;96.80;;;;;;5074599;28;20429;-76
2021/07/14 08:48:26;;;;;;;10.03;9.13;;;21.50;96.70;;;;;;5074632;28;20831;-76
2021/07/14 08:50:57;;;;;;;8.30;7.60;;;21.60;96.70;;;;;;5073823;28;20463;-76
2021/07/14 08:53:27;;;;;;;8.47;7.77;;;21.60;96.70;;;;;;5074725;28;20479;-75
2021/07/14 08:55:56;;;;;;;8.00;7.40;;;21.60;96.70;;;;;;5074752;28;20772;-76
2021/07/14 08:58:25;;;;;;;7.50;6.90;;;21.60;96.60;;;;;;5074305;28;20444;-76
2021/07/14 09:00:54;;;;;;;7.93;7.23;;;21.50;96.50;;;;;;5074338;28;20441;-76
2021/07/14 09:03:21;;;;;;;7.30;6.50;;;21.50;96.50;;;;;;5074565;28;20509;-76
2021/07/14 09:05:48;;;;;;;6.47;5.83;;;21.50;96.50;;;;;;5074441;28;20440;-76
2021/07/14 09:08:15;;;;;;;7.80;7.00;;;21.50;96.50;;;;;;5074429;28;20436;-76
2021/07/14 09:10:46;;;;;;;8.67;7.87;;;21.40;96.50;;;;;;5074403;28;20453;-76
2021/07/14 09:13:13;;;;;;;8.40;7.60;;;21.50;96.70;;;;;;5074404;28;20425;-76
2021/07/14 09:15:43;;;;;;;8.50;7.80;;;21.50;96.70;;;;;;5074284;28;20548;-76
2021/07/14 09:18:12;;;;;;;8.07;7.37;;;21.50;96.80;;;;;;5074324;28;20429;-76
2021/07/14 09:20:39;;;;;;;8.00;7.07;;;21.50;96.80;;;;;;5074227;28;20502;-76
2021/07/14 09:23:08;;;;;;;8.70;8.00;;;21.60;96.70;;;;;;5074179;28;20433;-76
2021/07/14 09:25:40;;;;;;;7.90;7.20;;;21.50;96.60;;;;;;5074028;28;20464;-76
2021/07/14 09:28:09;;;;;;;8.20;7.50;;;21.40;96.70;;;;;;5074120;28;20448;-76
2021/07/14 09:30:37;;;;;;;7.97;7.30;;;21.40;96.80;;;;;;5074017;28;20879;-76
2021/07/14 09:33:06;;;;;;;8.97;8.20;;;21.50;96.80;;;;;;5073978;28;20512;-76
2021/07/14 09:35:36;;;;;;;8.67;7.13;;;21.40;96.80;;;;;;5073843;28;20464;-76
2021/07/14 09:38:09;;;;;;;7.70;7.00;;;21.40;96.80;;;;;;5073914;28;20429;-75
2021/07/14 09:40:37;;;;;;;8.27;7.37;;;21.40;97.10;;;;;;5074022;28;20425;-76
2021/07/14 09:43:08;;;;;;;7.60;7.00;;;21.40;97.00;;;;;;5073876;28;20457;-75
2021/07/14 09:45:45;;;;;;;7.70;7.00;;;21.40;97.00;;;;;;5073535;28;21008;-76
2021/07/14 09:48:13;;;;;;;7.30;6.60;;;21.30;97.10;;;;;;5074102;28;20440;-76
2021/07/14 09:50:41;;;;;;;6.87;6.27;;;21.30;97.30;;;;;;5073463;28;20550;-76
2021/07/14 09:53:10;;;;;;;6.80;5.27;;;21.30;97.30;;;;;;5073724;28;20467;-76
2021/07/14 09:55:37;;;;;;;6.03;5.63;;;21.20;97.20;;;;;;5073630;28;20460;-77
2021/07/14 09:58:09;;;;;;;6.80;6.10;;;21.10;97.00;;;;;;5073355;28;20930;-76
2021/07/14 10:00:49;;;;;;;5.83;5.33;;;21.20;97.30;;;;;;5073326;28;20448;-76
2021/07/14 10:03:24;;;;;;;6.90;6.40;;;21.20;97.30;;;;;;5073599;28;20436;-76
2021/07/14 10:06:09;;;;;;;5.60;5.20;;;21.20;97.20;;;;;;5073546;28;20456;-76
2021/07/14 10:08:36;;;;;;;6.50;6.00;;;21.20;97.40;;;;;;5073482;28;20441;-76
2021/07/14 10:11:15;;;;;;;7.97;7.27;;;21.20;97.40;;;;;;5073487;28;20429;-76
2021/07/14 10:13:56;;;;;;;7.43;6.73;;;21.20;97.40;;;;;;5073347;28;20470;-74
2021/07/14 10:16:25;;;;;;;6.57;5.97;;;21.20;97.60;;;;;;5073466;28;20816;-75
2021/07/14 10:19:01;;;;;;;8.97;5.37;;;21.20;97.50;;;;;;5073378;28;20428;-75
2021/07/14 10:21:29;;;;;;;5.47;5.07;;;21.30;97.50;;;;;;5073326;28;20455;-75
2021/07/14 10:23:56;;;;;;;6.80;6.20;;;21.30;97.30;;;;;;5073314;28;20464;-75
2021/07/14 10:26:23;;;;;;;6.70;5.63;;;21.20;97.20;;;;;;5073374;28;20449;-75
2021/07/14 10:28:50;;;;;;;6.30;5.80;;;21.20;97.20;;;;;;5073193;28;20445;-75
2021/07/14 10:31:19;;;;;;;6.87;6.23;;;21.20;97.30;;;;;;5073271;28;20505;-75
2021/07/14 10:33:48;;;;;;;6.67;6.17;;;21.20;97.40;;;;;;5073499;28;20465;-76
2021/07/14 10:36:17;;;;;;;6.10;5.70;;;21.20;97.40;;;;;;5073218;28;20519;-76
2021/07/14 10:38:49;;;;;;;6.23;5.73;;;21.30;97.50;;;;;;5073557;28;20438;-77
2021/07/14 10:41:16;;;;;;;6.87;6.27;;;21.30;97.30;;;;;;5074050;28;20436;-77
2021/07/14 10:43:47;;;;;;;7.63;6.93;;;21.40;97.30;;;;;;5073862;28;20993;-79
2021/07/14 10:46:15;;;;;;;6.70;6.10;;;21.30;97.10;;;;;;5074419;28;20472;-78
2021/07/14 10:48:43;;;;;;;6.13;5.53;;;21.40;97.20;;;;;;5073360;28;20457;-76
2021/07/14 10:51:12;;;;;;;6.83;6.13;;;21.40;97.10;;;;;;5073016;28;20547;-76
2021/07/14 10:53:40;;;;;;;6.60;6.03;;;21.40;97.10;;;;;;5072731;28;20885;-76
2021/07/14 10:56:08;;;;;;;6.07;5.47;;;21.40;97.00;;;;;;5072762;28;20962;-76
2021/07/14 10:58:35;;;;;;;6.90;6.37;;;21.40;97.00;;;;;;5073070;28;20433;-76
2021/07/14 11:01:02;;;;;;;6.27;5.77;;;21.50;97.10;;;;;;5073015;28;20472;-76
2021/07/14 11:03:45;;;;;;;6.57;6.00;;;21.40;96.90;;;;;;5072885;28;20441;-75
2021/07/14 11:06:15;;;;;;;7.20;6.50;;;21.40;97.00;;;;;;5072730;28;20429;-76
2021/07/14 11:08:44;;;;;;;8.50;7.80;;;21.50;97.00;;;;;;5073013;28;20448;-74
2021/07/14 11:11:12;;;;;;;8.77;7.97;;;21.40;97.00;;;;;;5072896;28;20421;-76
2021/07/14 11:13:41;;;;;;;8.57;7.87;;;21.50;97.10;;;;;;5074980;28;20446;-75
2021/07/14 11:16:25;;;;;;;9.30;8.60;;;21.50;97.10;;;;;;5076613;28;20834;-75
2021/07/14 11:19:00;;;;;;;9.90;9.10;;;21.50;96.90;;;;;;5076540;28;20830;-75
2021/07/14 11:21:54;;;;;;;10.80;9.70;;;21.50;96.80;;;;;;5076831;28;20424;-76
2021/07/14 11:24:53;;;;;;;12.47;11.20;;;21.60;96.80;;;;;;5076436;28;20467;-77
2021/07/14 11:27:54;;;;;;;11.00;10.00;;;21.60;96.80;;;;;;5077112;28;20453;-76
2021/07/14 11:30:36;;;;;;;12.40;9.97;;;21.60;96.80;;;;;;5076295;28;20504;-76
2021/07/14 11:33:03;;;;;;;12.47;11.37;;;21.60;96.70;;;;;;5076393;28;20433;-75
2021/07/14 11:35:52;;;;;;;11.33;10.33;;;21.60;96.70;;;;;;5076242;28;20464;-76
2021/07/14 11:38:24;;;;;;;11.60;10.40;;;21.60;97.10;;;;;;5071648;28;20453;-76
2021/07/14 11:40:52;;;;;;;11.40;10.30;;;21.50;96.70;;;;;;5076490;28;20421;-76
2021/07/14 11:43:23;;;;;;;12.70;11.50;;;21.50;96.70;;;;;;5076074;28;20440;-76
2021/07/14 11:45:53;;;;;;;12.70;11.40;;;21.50;96.70;;;;;;5076166;28;20486;-76
2021/07/14 11:48:28;;;;;;;12.87;11.77;;;21.40;96.60;;;;;;5076075;28;20436;-75
2021/07/14 11:50:56;;;;;;;13.73;12.20;;;21.30;96.70;;;;;;5075687;28;20483;-75
2021/07/14 11:53:40;;;;;;;13.00;11.67;;;21.30;96.90;;;;;;5075884;28;20448;-75
2021/07/14 11:56:09;;;;;;;13.23;11.93;;;21.30;97.00;;;;;;5075634;28;20490;-77
2021/07/14 11:59:19;;;;;;;13.73;12.43;;;21.20;96.90;;;;;;5075779;28;20448;-76
2021/07/14 12:02:03;;;;;;;11.83;10.73;;;21.20;97.00;;;;;;5075878;28;20429;-76
2021/07/14 12:04:41;;;;;;;13.40;12.10;;;21.20;97.20;;;;;;5075753;28;20476;-75
2021/07/14 12:07:14;;;;;;;11.20;10.07;;;21.20;97.30;;;;;;5075669;28;20436;-76
2021/07/14 12:09:47;;;;;;;10.83;9.83;;;21.20;97.20;;;;;;5075268;28;20957;-75
2021/07/14 12:12:17;;;;;;;10.40;9.43;;;21.10;97.30;;;;;;5075606;28;20429;-75
2021/07/14 12:14:45;;;;;;;9.57;8.67;;;21.10;97.40;;;;;;5075442;28;20465;-76
2021/07/14 12:17:15;;;;;;;10.90;9.80;;;21.10;97.50;;;;;;5075450;28;20448;-76
2021/07/14 12:19:45;;;;;;;10.07;9.13;;;21.10;97.50;;;;;;5075546;28;20449;-76
2021/07/14 12:22:14;;;;;;;9.53;8.70;;;21.20;97.50;;;;;;5075376;28;20433;-76
2021/07/14 12:24:48;;;;;;;9.87;9.03;;;21.20;97.60;;;;;;5075059;28;20471;-76
2021/07/14 12:27:20;;;;;;;10.13;9.23;;;21.20;97.50;;;;;;5075345;28;20465;-77
2021/07/14 12:29:50;;;;;;;10.53;9.53;;;21.30;97.40;;;;;;5075225;28;20563;-76
2021/07/14 12:32:17;;;;;;;10.20;9.30;;;21.30;97.20;;;;;;5075194;28;20807;-76
2021/07/14 12:34:48;;;;;;;11.83;10.10;;;21.30;97.20;;;;;;5074700;28;20460;-76
2021/07/14 12:37:14;;;;;;;11.27;10.27;;;21.30;97.30;;;;;;5074791;28;20965;-77
2021/07/14 12:39:42;;;;;;;12.70;11.60;;;21.30;97.30;;;;;;5074786;28;20973;-76
2021/07/14 12:42:10;;;;;;;14.00;12.77;;;21.20;97.50;;;;;;5075118;28;20429;-76
2021/07/14 12:44:37;;;;;;;14.53;13.20;;;21.30;97.40;;;;;;5074978;28;20465;-77
2021/07/14 12:47:15;;;;;;;13.57;12.30;;;21.30;97.40;;;;;;5074973;28;20551;-77
2021/07/14 12:49:43;;;;;;;16.80;15.10;;;21.30;97.40;;;;;;5074622;28;20492;-76
2021/07/14 12:52:12;;;;;;;15.10;13.67;;;21.30;97.50;;;;;;5074865;28;20482;-77